sensor_id;sensor_type;location;lat;lon;timestamp;pressure;altitude;pressure_sealevel;temperature;humidity
6395;BME280;3230;42.588;23.358;2023-09-19T00:00:36;91480.13;;;13.40;100.00
6395;BME280;3230;42.588;23.358;2023-09-19T00:03:02;91482.13;;;13.24;100.00
6395;BME280;3230;42.588;23.358;2023-09-19T00:05:29;91480.88;;;13.17;100.00
6395;BME280;3230;42.588;23.358;2023-09-19T00:07:58;91482.47;;;13.18;100.00
6395;BME280;3230;42.588;23.358;2023-09-19T00:10:25;91476.16;;;13.14;100.00
6395;BME280;3230;42.588;23.358;2023-09-19T00:12:52;91477.88;;;12.99;100.00
6395;BME280;3230;42.588;23.358;2023-09-19T00:15:21;91479.97;;;13.02;100.00
6395;BME280;3230;42.588;23.358;2023-09-19T00:17:46;91480.69;;;13.08;100.00
6395;BME280;3230;42.588;23.358;2023-09-19T00:20:14;91461.63;;;12.92;100.00
6395;BME280;3230;42.588;23.358;2023-09-19T00:22:42;91468.44;;;12.93;100.00
6395;BME280;3230;42.588;23.358;2023-09-19T00:25:08;91467.41;;;12.94;100.00
6395;BME280;3230;42.588;23.358;2023-09-19T00:27:40;91464.88;;;12.84;100.00
6395;BME280;3230;42.588;23.358;2023-09-19T00:30:09;91463.28;;;12.83;100.00
6395;BME280;3230;42.588;23.358;2023-09-19T00:32:50;91456.38;;;12.57;100.00
6395;BME280;3230;42.588;23.358;2023-09-19T00:35:20;91458.72;;;12.59;100.00
6395;BME280;3230;42.588;23.358;2023-09-19T00:37:46;91462.41;;;12.63;100.00
6395;BME280;3230;42.588;23.358;2023-09-19T00:40:11;91462.16;;;12.59;100.00
6395;BME280;3230;42.588;23.358;2023-09-19T00:42:46;91454.28;;;12.54;100.00
6395;BME280;3230;42.588;23.358;2023-09-19T00:45:13;91453.53;;;12.54;100.00
6395;BME280;3230;42.588;23.358;2023-09-19T00:47:49;91448.38;;;12.38;100.00
6395;BME280;3230;42.588;23.358;2023-09-19T00:50:16;91453.91;;;12.37;100.00
6395;BME280;3230;42.588;23.358;2023-09-19T00:52:43;91454.44;;;12.34;100.00
6395;BME280;3230;42.588;23.358;2023-09-19T00:55:09;91453.63;;;12.38;100.00
6395;BME280;3230;42.588;23.358;2023-09-19T00:57:36;91446.91;;;12.22;100.00
6395;BME280;3230;42.588;23.358;2023-09-19T01:00:04;91451.38;;;12.21;100.00
6395;BME280;3230;42.588;23.358;2023-09-19T01:02:34;91452.44;;;12.20;100.00
6395;BME280;3230;42.588;23.358;2023-09-19T01:05:00;91454.75;;;12.27;100.00
6395;BME280;3230;42.588;23.358;2023-09-19T01:07:27;91452.66;;;12.29;100.00
6395;BME280;3230;42.588;23.358;2023-09-19T01:09:56;91445.38;;;12.15;100.00
6395;BME280;3230;42.588;23.358;2023-09-19T01:18:35;91453.31;;;12.05;100.00
6395;BME280;3230;42.588;23.358;2023-09-19T01:21:27;91445.19;;;12.02;100.00
6395;BME280;3230;42.588;23.358;2023-09-19T01:27:03;91441.25;;;11.99;100.00
6395;BME280;3230;42.588;23.358;2023-09-19T01:29:38;91441.25;;;11.99;100.00
6395;BME280;3230;42.588;23.358;2023-09-19T01:32:05;91436.53;;;12.01;100.00
6395;BME280;3230;42.588;23.358;2023-09-19T01:34:51;91433.69;;;11.92;100.00
6395;BME280;3230;42.588;23.358;2023-09-19T01:37:18;91441.06;;;11.85;100.00
6395;BME280;3230;42.588;23.358;2023-09-19T01:39:57;91437.09;;;11.88;100.00
6395;BME280;3230;42.588;23.358;2023-09-19T01:47:51;91427.69;;;11.76;100.00
6395;BME280;3230;42.588;23.358;2023-09-19T01:50:27;91435.84;;;11.75;100.00
6395;BME280;3230;42.588;23.358;2023-09-19T01:52:59;91428.78;;;11.75;100.00
6395;BME280;3230;42.588;23.358;2023-09-19T01:55:30;91425.66;;;11.68;100.00
6395;BME280;3230;42.588;23.358;2023-09-19T01:58:04;91424.59;;;11.64;100.00
6395;BME280;3230;42.588;23.358;2023-09-19T02:00:34;91428.56;;;11.61;100.00
6395;BME280;3230;42.588;23.358;2023-09-19T02:03:02;91427.19;;;11.74;100.00
6395;BME280;3230;42.588;23.358;2023-09-19T02:05:28;91431.44;;;11.65;100.00
6395;BME280;3230;42.588;23.358;2023-09-19T02:07:53;91431.44;;;11.65;100.00
6395;BME280;3230;42.588;23.358;2023-09-19T02:10:19;91438.78;;;11.68;100.00
6395;BME280;3230;42.588;23.358;2023-09-19T02:12:45;91447.16;;;11.75;100.00
6395;BME280;3230;42.588;23.358;2023-09-19T02:15:11;91442.94;;;11.74;100.00
6395;BME280;3230;42.588;23.358;2023-09-19T02:17:36;91434.59;;;11.67;100.00
6395;BME280;3230;42.588;23.358;2023-09-19T02:20:03;91443.47;;;11.71;100.00
6395;BME280;3230;42.588;23.358;2023-09-19T02:22:36;91445.56;;;11.69;100.00
6395;BME280;3230;42.588;23.358;2023-09-19T02:25:02;91452.19;;;11.61;100.00
6395;BME280;3230;42.588;23.358;2023-09-19T02:27:30;91441.41;;;11.63;100.00
6395;BME280;3230;42.588;23.358;2023-09-19T02:29:56;91442.47;;;11.62;100.00
6395;BME280;3230;42.588;23.358;2023-09-19T02:32:21;91446.16;;;11.56;100.00
6395;BME280;3230;42.588;23.358;2023-09-19T02:34:48;91435.44;;;11.47;100.00
6395;BME280;3230;42.588;23.358;2023-09-19T02:37:14;91423.41;;;11.41;100.00
6395;BME280;3230;42.588;23.358;2023-09-19T02:39:41;91430.16;;;11.52;100.00
6395;BME280;3230;42.588;23.358;2023-09-19T02:42:07;91423.34;;;11.56;100.00
6395;BME280;3230;42.588;23.358;2023-09-19T02:44:32;91417.00;;;11.62;100.00
6395;BME280;3230;42.588;23.358;2023-09-19T02:46:59;91414.47;;;11.42;100.00
6395;BME280;3230;42.588;23.358;2023-09-19T02:49:24;91402.16;;;11.37;100.00
6395;BME280;3230;42.588;23.358;2023-09-19T02:51:50;91401.94;;;11.28;100.00
6395;BME280;3230;42.588;23.358;2023-09-19T02:54:17;91397.72;;;11.32;100.00
6395;BME280;3230;42.588;23.358;2023-09-19T02:56:43;91395.84;;;11.38;100.00
6395;BME280;3230;42.588;23.358;2023-09-19T02:59:08;91393.28;;;11.28;100.00
6395;BME280;3230;42.588;23.358;2023-09-19T03:01:35;91392.72;;;11.31;100.00
6395;BME280;3230;42.588;23.358;2023-09-19T03:04:02;91392.72;;;11.31;100.00
6395;BME280;3230;42.588;23.358;2023-09-19T03:06:28;91388.28;;;11.31;100.00
6395;BME280;3230;42.588;23.358;2023-09-19T03:08:56;91386.41;;;11.37;100.00
6395;BME280;3230;42.588;23.358;2023-09-19T03:11:22;91376.47;;;11.29;100.00
6395;BME280;3230;42.588;23.358;2023-09-19T03:13:54;91389.00;;;11.42;100.00
6395;BME280;3230;42.588;23.358;2023-09-19T03:16:20;91376.91;;;11.51;100.00
6395;BME280;3230;42.588;23.358;2023-09-19T03:18:47;91382.88;;;11.62;100.00
6395;BME280;3230;42.588;23.358;2023-09-19T03:21:15;91377.13;;;11.60;100.00
6395;BME280;3230;42.588;23.358;2023-09-19T03:23:41;91386.34;;;11.52;100.00
6395;BME280;3230;42.588;23.358;2023-09-19T03:26:06;91388.16;;;11.57;100.00
6395;BME280;3230;42.588;23.358;2023-09-19T03:28:33;91392.63;;;11.57;100.00
6395;BME280;3230;42.588;23.358;2023-09-19T03:31:01;91403.88;;;11.62;100.00
6395;BME280;3230;42.588;23.358;2023-09-19T03:33:27;91382.66;;;11.59;100.00
6395;BME280;3230;42.588;23.358;2023-09-19T03:35:53;91400.00;;;11.49;100.00
6395;BME280;3230;42.588;23.358;2023-09-19T03:38:19;91394.50;;;11.46;100.00
6395;BME280;3230;42.588;23.358;2023-09-19T03:40:45;91387.22;;;11.32;100.00
6395;BME280;3230;42.588;23.358;2023-09-19T03:43:10;91385.91;;;11.30;100.00
6395;BME280;3230;42.588;23.358;2023-09-19T03:45:36;91387.97;;;11.38;100.00
6395;BME280;3230;42.588;23.358;2023-09-19T03:48:08;91381.19;;;11.32;100.00
6395;BME280;3230;42.588;23.358;2023-09-19T03:50:33;91388.22;;;11.42;100.00
6395;BME280;3230;42.588;23.358;2023-09-19T03:52:59;91379.59;;;11.36;100.00
6395;BME280;3230;42.588;23.358;2023-09-19T03:55:24;91388.75;;;11.44;100.00
6395;BME280;3230;42.588;23.358;2023-09-19T03:57:49;91390.59;;;11.43;100.00
6395;BME280;3230;42.588;23.358;2023-09-19T04:00:15;91392.19;;;11.39;100.00
6395;BME280;3230;42.588;23.358;2023-09-19T04:02:43;91393.75;;;11.35;100.00
6395;BME280;3230;42.588;23.358;2023-09-19T04:05:09;91398.97;;;11.45;100.00
6395;BME280;3230;42.588;23.358;2023-09-19T04:07:35;91396.88;;;11.42;100.00
6395;BME280;3230;42.588;23.358;2023-09-19T04:10:01;91409.72;;;11.49;100.00
6395;BME280;3230;42.588;23.358;2023-09-19T04:12:26;91409.97;;;11.52;100.00
6395;BME280;3230;42.588;23.358;2023-09-19T04:14:52;91412.59;;;11.52;100.00
6395;BME280;3230;42.588;23.358;2023-09-19T04:17:17;91407.88;;;11.49;100.00
6395;BME280;3230;42.588;23.358;2023-09-19T04:19:43;91418.41;;;11.44;100.00
6395;BME280;3230;42.588;23.358;2023-09-19T04:22:10;91419.38;;;11.59;100.00
6395;BME280;3230;42.588;23.358;2023-09-19T04:24:36;91424.09;;;11.62;100.00
6395;BME280;3230;42.588;23.358;2023-09-19T04:27:04;91425.91;;;11.72;100.00
6395;BME280;3230;42.588;23.358;2023-09-19T04:29:29;91431.84;;;11.88;100.00
6395;BME280;3230;42.588;23.358;2023-09-19T04:31:55;91432.09;;;11.91;100.00
6395;BME280;3230;42.588;23.358;2023-09-19T04:34:22;91427.84;;;12.06;100.00
6395;BME280;3230;42.588;23.358;2023-09-19T04:36:49;91429.31;;;12.22;100.00
6395;BME280;3230;42.588;23.358;2023-09-19T04:39:14;91435.72;;;12.45;100.00
6395;BME280;3230;42.588;23.358;2023-09-19T04:41:40;91428.47;;;14.31;100.00
6395;BME280;3230;42.588;23.358;2023-09-19T04:44:07;91428.19;;;15.88;100.00
6395;BME280;3230;42.588;23.358;2023-09-19T04:46:35;91437.25;;;16.91;100.00
6395;BME280;3230;42.588;23.358;2023-09-19T04:49:00;91444.63;;;15.98;97.09
6395;BME280;3230;42.588;23.358;2023-09-19T04:51:26;91438.25;;;15.44;99.21
6395;BME280;3230;42.588;23.358;2023-09-19T04:53:54;91425.22;;;15.06;100.00
6395;BME280;3230;42.588;23.358;2023-09-19T04:56:20;91426.00;;;16.04;100.00
6395;BME280;3230;42.588;23.358;2023-09-19T04:58:46;91444.09;;;17.78;95.86
6395;BME280;3230;42.588;23.358;2023-09-19T05:01:11;91443.00;;;19.07;90.21
6395;BME280;3230;42.588;23.358;2023-09-19T05:03:39;91449.81;;;20.63;80.03
6395;BME280;3230;42.588;23.358;2023-09-19T05:06:04;91442.56;;;22.23;75.55
6395;BME280;3230;42.588;23.358;2023-09-19T05:08:30;91437.75;;;23.51;63.88
6395;BME280;3230;42.588;23.358;2023-09-19T05:10:55;91441.34;;;22.32;63.64
6395;BME280;3230;42.588;23.358;2023-09-19T05:13:21;91432.31;;;22.90;61.20
6395;BME280;3230;42.588;23.358;2023-09-19T05:15:48;91439.94;;;22.76;62.87
6395;BME280;3230;42.588;23.358;2023-09-19T05:18:15;91433.38;;;24.22;55.88
6395;BME280;3230;42.588;23.358;2023-09-19T05:20:41;91433.88;;;23.80;54.90
6395;BME280;3230;42.588;23.358;2023-09-19T05:23:07;91417.72;;;24.24;52.46
6395;BME280;3230;42.588;23.358;2023-09-19T05:25:35;91420.94;;;24.66;51.97
6395;BME280;3230;42.588;23.358;2023-09-19T05:31:43;91433.66;;;26.17;46.19
6395;BME280;3230;42.588;23.358;2023-09-19T05:34:15;91411.22;;;26.86;44.09
6395;BME280;3230;42.588;23.358;2023-09-19T05:36:41;91395.94;;;25.86;45.82
6395;BME280;3230;42.588;23.358;2023-09-19T05:39:06;91411.28;;;25.86;45.63
6395;BME280;3230;42.588;23.358;2023-09-19T05:41:35;91415.28;;;26.46;45.06
6395;BME280;3230;42.588;23.358;2023-09-19T05:44:03;91413.69;;;27.36;41.71
6395;BME280;3230;42.588;23.358;2023-09-19T05:46:28;91411.69;;;27.26;41.88
6395;BME280;3230;42.588;23.358;2023-09-19T05:48:55;91410.03;;;27.18;41.95
6395;BME280;3230;42.588;23.358;2023-09-19T05:51:22;91414.63;;;27.92;40.32
6395;BME280;3230;42.588;23.358;2023-09-19T05:53:48;91412.44;;;27.60;41.29
6395;BME280;3230;42.588;23.358;2023-09-19T05:56:14;91405.81;;;27.17;41.68
6395;BME280;3230;42.588;23.358;2023-09-19T05:58:40;91408.09;;;27.49;40.46
6395;BME280;3230;42.588;23.358;2023-09-19T06:01:09;91404.41;;;26.39;43.61
6395;BME280;3230;42.588;23.358;2023-09-19T06:03:35;91402.69;;;27.49;41.35
6395;BME280;3230;42.588;23.358;2023-09-19T06:06:01;91403.59;;;28.64;38.59
6395;BME280;3230;42.588;23.358;2023-09-19T06:08:27;91401.28;;;27.62;40.09
6395;BME280;3230;42.588;23.358;2023-09-19T06:10:53;91393.25;;;27.66;40.50
6395;BME280;3230;42.588;23.358;2023-09-19T06:13:19;91391.63;;;27.20;40.98
6395;BME280;3230;42.588;23.358;2023-09-19T06:15:45;91391.34;;;26.37;42.91
6395;BME280;3230;42.588;23.358;2023-09-19T06:18:12;91391.13;;;25.73;44.08
6395;BME280;3230;42.588;23.358;2023-09-19T06:20:48;91396.63;;;26.30;44.04
6395;BME280;3230;42.588;23.358;2023-09-19T06:23:16;91389.31;;;26.57;43.81
6395;BME280;3230;42.588;23.358;2023-09-19T06:25:42;91390.88;;;27.23;42.74
6395;BME280;3230;42.588;23.358;2023-09-19T06:28:09;91393.91;;;27.52;39.92
6395;BME280;3230;42.588;23.358;2023-09-19T06:30:37;91383.78;;;27.07;41.77
6395;BME280;3230;42.588;23.358;2023-09-19T06:33:07;91389.44;;;26.68;42.50
6395;BME280;3230;42.588;23.358;2023-09-19T06:35:33;91387.41;;;26.85;42.15
6395;BME280;3230;42.588;23.358;2023-09-19T06:38:02;91387.94;;;26.13;43.32
6395;BME280;3230;42.588;23.358;2023-09-19T06:40:28;91385.03;;;26.79;41.60
6395;BME280;3230;42.588;23.358;2023-09-19T06:42:53;91387.75;;;28.00;40.06
6395;BME280;3230;42.588;23.358;2023-09-19T06:45:19;91397.44;;;28.60;38.75
6395;BME280;3230;42.588;23.358;2023-09-19T06:47:47;91391.22;;;27.97;38.93
6395;BME280;3230;42.588;23.358;2023-09-19T06:50:25;91396.06;;;28.25;38.97
6395;BME280;3230;42.588;23.358;2023-09-19T06:52:52;91387.69;;;27.92;39.36
6395;BME280;3230;42.588;23.358;2023-09-19T06:55:19;91395.25;;;27.72;40.81
6395;BME280;3230;42.588;23.358;2023-09-19T06:57:45;91399.09;;;27.00;42.27
6395;BME280;3230;42.588;23.358;2023-09-19T07:00:12;91399.97;;;27.11;41.04
6395;BME280;3230;42.588;23.358;2023-09-19T07:02:54;91396.44;;;27.03;41.89
6395;BME280;3230;42.588;23.358;2023-09-19T07:05:20;91391.94;;;26.54;41.35
6395;BME280;3230;42.588;23.358;2023-09-19T07:07:46;91405.16;;;26.09;43.91
6395;BME280;3230;42.588;23.358;2023-09-19T07:10:12;91401.84;;;25.96;44.13
6395;BME280;3230;42.588;23.358;2023-09-19T07:12:38;91405.38;;;25.34;45.11
6395;BME280;3230;42.588;23.358;2023-09-19T07:15:04;91405.41;;;25.14;45.65
6395;BME280;3230;42.588;23.358;2023-09-19T07:17:31;91403.41;;;24.52;48.11
6395;BME280;3230;42.588;23.358;2023-09-19T07:19:58;91408.75;;;24.52;46.80
6395;BME280;3230;42.588;23.358;2023-09-19T07:22:24;91404.72;;;25.17;46.40
6395;BME280;3230;42.588;23.358;2023-09-19T07:24:49;91400.13;;;24.43;48.13
6395;BME280;3230;42.588;23.358;2023-09-19T07:27:15;91402.22;;;25.48;47.03
6395;BME280;3230;42.588;23.358;2023-09-19T07:29:40;91402.66;;;25.11;47.08
6395;BME280;3230;42.588;23.358;2023-09-19T07:32:05;91409.63;;;25.35;45.74
6395;BME280;3230;42.588;23.358;2023-09-19T07:34:31;91395.81;;;24.54;48.07
6395;BME280;3230;42.588;23.358;2023-09-19T07:36:57;91398.00;;;24.33;49.03
6395;BME280;3230;42.588;23.358;2023-09-19T07:39:22;91410.56;;;24.29;49.84
6395;BME280;3230;42.588;23.358;2023-09-19T07:41:48;91399.56;;;23.98;52.60
6395;BME280;3230;42.588;23.358;2023-09-19T07:44:14;91409.09;;;23.51;53.05
6395;BME280;3230;42.588;23.358;2023-09-19T07:46:40;91408.22;;;23.03;56.11
6395;BME280;3230;42.588;23.358;2023-09-19T07:49:05;91399.25;;;22.66;57.83
6395;BME280;3230;42.588;23.358;2023-09-19T07:51:30;91402.53;;;22.23;60.42
6395;BME280;3230;42.588;23.358;2023-09-19T07:53:56;91407.38;;;22.58;58.97
6395;BME280;3230;42.588;23.358;2023-09-19T07:56:22;91402.81;;;22.33;60.26
6395;BME280;3230;42.588;23.358;2023-09-19T07:58:47;91415.78;;;21.94;63.00
6395;BME280;3230;42.588;23.358;2023-09-19T08:01:13;91418.78;;;21.80;63.03
6395;BME280;3230;42.588;23.358;2023-09-19T08:03:39;91413.09;;;21.57;65.64
6395;BME280;3230;42.588;23.358;2023-09-19T08:06:09;91409.34;;;21.58;65.87
6395;BME280;3230;42.588;23.358;2023-09-19T08:08:35;91410.66;;;21.64;65.67
6395;BME280;3230;42.588;23.358;2023-09-19T08:11:05;91406.22;;;22.06;63.46
6395;BME280;3230;42.588;23.358;2023-09-19T08:13:46;91406.19;;;22.43;60.33
6395;BME280;3230;42.588;23.358;2023-09-19T08:16:17;91416.59;;;22.60;59.92
6395;BME280;3230;42.588;23.358;2023-09-19T08:18:47;91406.47;;;22.94;58.98
6395;BME280;3230;42.588;23.358;2023-09-19T08:21:13;91403.56;;;22.99;58.72
6395;BME280;3230;42.588;23.358;2023-09-19T08:23:40;91407.63;;;22.81;58.90
6395;BME280;3230;42.588;23.358;2023-09-19T08:26:07;91402.09;;;23.30;56.82
6395;BME280;3230;42.588;23.358;2023-09-19T08:28:34;91395.09;;;23.42;56.15
6395;BME280;3230;42.588;23.358;2023-09-19T08:31:03;91395.00;;;22.94;58.26
6395;BME280;3230;42.588;23.358;2023-09-19T08:33:32;91392.47;;;23.74;55.02
6395;BME280;3230;42.588;23.358;2023-09-19T08:35:59;91388.47;;;23.52;55.47
6395;BME280;3230;42.588;23.358;2023-09-19T08:38:24;91398.25;;;23.92;54.11
6395;BME280;3230;42.588;23.358;2023-09-19T08:40:57;91393.47;;;23.09;57.18
6395;BME280;3230;42.588;23.358;2023-09-19T08:43:23;91392.81;;;24.04;53.91
6395;BME280;3230;42.588;23.358;2023-09-19T08:45:49;91400.28;;;24.66;51.43
6395;BME280;3230;42.588;23.358;2023-09-19T08:48:26;91399.03;;;24.64;51.40
6395;BME280;3230;42.588;23.358;2023-09-19T08:54:20;91400.66;;;24.49;52.72
6395;BME280;3230;42.588;23.358;2023-09-19T08:56:39;91392.84;;;24.24;52.96
6395;BME280;3230;42.588;23.358;2023-09-19T08:59:06;91395.47;;;23.72;55.62
6395;BME280;3230;42.588;23.358;2023-09-19T09:01:35;91394.44;;;24.09;54.19
6395;BME280;3230;42.588;23.358;2023-09-19T09:04:02;91388.78;;;23.94;54.79
6395;BME280;3230;42.588;23.358;2023-09-19T09:06:28;91390.81;;;23.85;54.08
6395;BME280;3230;42.588;23.358;2023-09-19T09:08:54;91386.56;;;23.84;55.83
6395;BME280;3230;42.588;23.358;2023-09-19T09:11:20;91384.16;;;24.11;54.92
6395;BME280;3230;42.588;23.358;2023-09-19T09:13:47;91387.28;;;24.13;53.45
6395;BME280;3230;42.588;23.358;2023-09-19T09:16:14;91383.88;;;24.32;53.24
6395;BME280;3230;42.588;23.358;2023-09-19T09:18:42;91380.19;;;24.05;53.81
6395;BME280;3230;42.588;23.358;2023-09-19T09:21:09;91382.38;;;24.35;53.89
6395;BME280;3230;42.588;23.358;2023-09-19T09:23:35;91384.69;;;23.85;55.76
6395;BME280;3230;42.588;23.358;2023-09-19T09:26:00;91368.97;;;23.99;55.09
6395;BME280;3230;42.588;23.358;2023-09-19T09:28:32;91375.31;;;24.26;56.54
6395;BME280;3230;42.588;23.358;2023-09-19T09:30:59;91373.25;;;24.20;54.66
6395;BME280;3230;42.588;23.358;2023-09-19T09:33:28;91369.31;;;23.98;55.85
6395;BME280;3230;42.588;23.358;2023-09-19T09:36:00;91364.50;;;23.71;55.50
6395;BME280;3230;42.588;23.358;2023-09-19T09:38:42;91367.09;;;23.68;57.66
6395;BME280;3230;42.588;23.358;2023-09-19T09:41:09;91370.53;;;23.68;55.00
6395;BME280;3230;42.588;23.358;2023-09-19T09:43:39;91368.28;;;23.86;56.27
6395;BME280;3230;42.588;23.358;2023-09-19T09:46:14;91361.91;;;23.91;55.17
6395;BME280;3230;42.588;23.358;2023-09-19T09:48:47;91363.38;;;23.40;57.48
6395;BME280;3230;42.588;23.358;2023-09-19T09:51:33;91359.75;;;23.80;56.48
6395;BME280;3230;42.588;23.358;2023-09-19T09:54:13;91360.44;;;23.77;57.97
6395;BME280;3230;42.588;23.358;2023-09-19T09:57:12;91358.09;;;24.08;56.47
6395;BME280;3230;42.588;23.358;2023-09-19T10:02:15;91348.78;;;24.02;56.18
6395;BME280;3230;42.588;23.358;2023-09-19T10:04:50;91354.06;;;23.98;55.08
6395;BME280;3230;42.588;23.358;2023-09-19T10:07:33;91349.41;;;23.95;55.72
6395;BME280;3230;42.588;23.358;2023-09-19T10:10:07;91347.28;;;24.20;55.72
6395;BME280;3230;42.588;23.358;2023-09-19T10:12:48;91346.97;;;24.25;54.52
6395;BME280;3230;42.588;23.358;2023-09-19T10:15:18;91352.50;;;24.33;55.65
6395;BME280;3230;42.588;23.358;2023-09-19T10:17:51;91345.59;;;24.32;57.56
6395;BME280;3230;42.588;23.358;2023-09-19T10:20:24;91350.25;;;24.54;53.41
6395;BME280;3230;42.588;23.358;2023-09-19T10:23:01;91354.75;;;24.31;53.97
6395;BME280;3230;42.588;23.358;2023-09-19T10:25:29;91353.75;;;24.19;55.42
6395;BME280;3230;42.588;23.358;2023-09-19T10:27:57;91346.16;;;23.89;56.23
6395;BME280;3230;42.588;23.358;2023-09-19T10:30:25;91345.16;;;23.78;59.36
6395;BME280;3230;42.588;23.358;2023-09-19T10:32:59;91347.94;;;24.17;55.72
6395;BME280;3230;42.588;23.358;2023-09-19T10:35:25;91342.28;;;24.03;56.70
6395;BME280;3230;42.588;23.358;2023-09-19T10:37:54;91351.56;;;24.25;56.73
6395;BME280;3230;42.588;23.358;2023-09-19T10:40:20;91340.16;;;24.28;55.07
6395;BME280;3230;42.588;23.358;2023-09-19T10:42:48;91342.44;;;24.10;54.87
6395;BME280;3230;42.588;23.358;2023-09-19T10:45:16;91341.63;;;23.74;56.58
6395;BME280;3230;42.588;23.358;2023-09-19T10:47:45;91342.38;;;23.90;56.28
6395;BME280;3230;42.588;23.358;2023-09-19T10:50:20;91337.91;;;24.30;54.65
6395;BME280;3230;42.588;23.358;2023-09-19T10:52:50;91338.22;;;24.64;53.95
6395;BME280;3230;42.588;23.358;2023-09-19T10:55:25;91344.69;;;24.63;53.52
6395;BME280;3230;42.588;23.358;2023-09-19T10:57:53;91338.56;;;24.63;52.18
6395;BME280;3230;42.588;23.358;2023-09-19T11:00:19;91330.63;;;24.31;54.86
6395;BME280;3230;42.588;23.358;2023-09-19T11:05:39;91329.47;;;24.67;54.86
6395;BME280;3230;42.588;23.358;2023-09-19T11:08:07;91330.38;;;24.55;54.54
6395;BME280;3230;42.588;23.358;2023-09-19T11:10:48;91333.31;;;24.50;55.04
6395;BME280;3230;42.588;23.358;2023-09-19T11:13:33;91335.47;;;24.80;53.56
6395;BME280;3230;42.588;23.358;2023-09-19T11:16:04;91328.84;;;24.54;53.92
6395;BME280;3230;42.588;23.358;2023-09-19T11:26:48;91322.22;;;24.48;52.80
6395;BME280;3230;42.588;23.358;2023-09-19T11:29:30;91314.34;;;24.20;54.97
6395;BME280;3230;42.588;23.358;2023-09-19T11:31:57;91314.47;;;24.82;54.49
6395;BME280;3230;42.588;23.358;2023-09-19T11:39:39;91306.34;;;25.21;51.35
6395;BME280;3230;42.588;23.358;2023-09-19T11:42:42;91298.72;;;24.81;52.43
6395;BME280;3230;42.588;23.358;2023-09-19T11:48:06;91293.59;;;24.72;54.42
6395;BME280;3230;42.588;23.358;2023-09-19T11:50:33;91291.72;;;24.96;52.66
6395;BME280;3230;42.588;23.358;2023-09-19T11:53:01;91283.97;;;24.90;52.80
6395;BME280;3230;42.588;23.358;2023-09-19T11:55:31;91283.09;;;25.06;50.88
6395;BME280;3230;42.588;23.358;2023-09-19T11:57:58;91282.03;;;24.68;51.72
6395;BME280;3230;42.588;23.358;2023-09-19T12:00:24;91278.97;;;24.89;51.48
6395;BME280;3230;42.588;23.358;2023-09-19T12:02:55;91276.53;;;24.80;53.66
6395;BME280;3230;42.588;23.358;2023-09-19T12:05:30;91275.56;;;24.49;52.94
6395;BME280;3230;42.588;23.358;2023-09-19T12:07:58;91273.66;;;24.69;52.58
6395;BME280;3230;42.588;23.358;2023-09-19T12:10:24;91270.94;;;24.89;52.26
6395;BME280;3230;42.588;23.358;2023-09-19T12:12:50;91274.66;;;24.84;53.12
6395;BME280;3230;42.588;23.358;2023-09-19T12:15:23;91269.00;;;24.66;54.04
6395;BME280;3230;42.588;23.358;2023-09-19T12:17:54;91270.34;;;24.76;54.18
6395;BME280;3230;42.588;23.358;2023-09-19T12:20:19;91268.47;;;24.80;56.20
6395;BME280;3230;42.588;23.358;2023-09-19T12:22:46;91255.78;;;24.57;54.88
6395;BME280;3230;42.588;23.358;2023-09-19T12:25:15;91266.41;;;24.70;54.34
6395;BME280;3230;42.588;23.358;2023-09-19T12:27:49;91257.22;;;24.71;53.09
6395;BME280;3230;42.588;23.358;2023-09-19T12:30:19;91258.97;;;24.63;54.96
6395;BME280;3230;42.588;23.358;2023-09-19T12:32:46;91256.75;;;24.88;53.33
6395;BME280;3230;42.588;23.358;2023-09-19T12:35:31;91256.53;;;24.97;54.87
6395;BME280;3230;42.588;23.358;2023-09-19T12:38:00;91253.53;;;24.59;55.26
6395;BME280;3230;42.588;23.358;2023-09-19T12:40:26;91249.09;;;24.48;56.02
6395;BME280;3230;42.588;23.358;2023-09-19T12:42:59;91253.25;;;24.65;54.42
6395;BME280;3230;42.588;23.358;2023-09-19T12:45:25;91242.41;;;24.57;53.62
6395;BME280;3230;42.588;23.358;2023-09-19T12:48:22;91242.84;;;24.40;57.02
6395;BME280;3230;42.588;23.358;2023-09-19T12:51:06;91234.53;;;24.06;59.41
6395;BME280;3230;42.588;23.358;2023-09-19T12:53:40;91245.19;;;24.22;57.92
6395;BME280;3230;42.588;23.358;2023-09-19T12:56:16;91244.56;;;24.29;55.83
6395;BME280;3230;42.588;23.358;2023-09-19T12:58:57;91238.19;;;24.17;55.73
6395;BME280;3230;42.588;23.358;2023-09-19T13:01:26;91235.66;;;24.24;57.59
6395;BME280;3230;42.588;23.358;2023-09-19T13:04:20;91240.31;;;24.67;55.25
6395;BME280;3230;42.588;23.358;2023-09-19T13:06:49;91244.81;;;24.63;54.87
6395;BME280;3230;42.588;23.358;2023-09-19T13:09:16;91233.97;;;24.55;54.41
6395;BME280;3230;42.588;23.358;2023-09-19T13:11:42;91236.31;;;24.37;54.47
6395;BME280;3230;42.588;23.358;2023-09-19T13:14:19;91234.16;;;24.47;56.09
6395;BME280;3230;42.588;23.358;2023-09-19T13:17:04;91233.25;;;24.39;56.42
6395;BME280;3230;42.588;23.358;2023-09-19T13:22:03;91228.81;;;24.27;55.79
6395;BME280;3230;42.588;23.358;2023-09-19T13:24:28;91232.75;;;24.33;56.26
6395;BME280;3230;42.588;23.358;2023-09-19T13:26:56;91218.25;;;24.34;57.42
6395;BME280;3230;42.588;23.358;2023-09-19T13:29:22;91222.53;;;24.39;57.48
6395;BME280;3230;42.588;23.358;2023-09-19T13:31:51;91214.91;;;24.61;55.98
6395;BME280;3230;42.588;23.358;2023-09-19T13:34:20;91223.81;;;24.45;57.44
6395;BME280;3230;42.588;23.358;2023-09-19T13:36:46;91215.09;;;24.29;56.75
6395;BME280;3230;42.588;23.358;2023-09-19T13:39:14;91217.75;;;24.48;57.52
6395;BME280;3230;42.588;23.358;2023-09-19T13:41:41;91212.34;;;24.25;56.61
6395;BME280;3230;42.588;23.358;2023-09-19T13:44:08;91213.41;;;24.63;55.55
6395;BME280;3230;42.588;23.358;2023-09-19T13:46:36;91205.66;;;24.78;54.87
6395;BME280;3230;42.588;23.358;2023-09-19T13:49:02;91208.22;;;24.70;54.20
6395;BME280;3230;42.588;23.358;2023-09-19T13:51:30;91212.09;;;24.53;54.24
6395;BME280;3230;42.588;23.358;2023-09-19T13:53:56;91210.94;;;24.31;56.70
6395;BME280;3230;42.588;23.358;2023-09-19T13:56:21;91199.38;;;24.27;57.87
6395;BME280;3230;42.588;23.358;2023-09-19T13:58:47;91206.94;;;24.21;57.07
6395;BME280;3230;42.588;23.358;2023-09-19T14:01:13;91207.75;;;24.25;55.28